Time;durP1;ratioP1;P1;durP2;ratioP2;P2;SDS_P1;SDS_P2;PMS_P1;PMS_P2;Temp;Humidity;BMP_temperature;BMP_pressure;BME280_temperature;BME280_humidity;BME280_pressure;Samples;Min_cycle;Max_cycle;Signal;HPM_P1;HPM_P2
2024/03/18 00:02:26;;;;;;;6.40;3.73;;;17.20;99.90;;;;;;5049214;28;20033;-73
2024/03/18 00:04:53;;;;;;;4.95;3.22;;;17.20;99.90;;;;;;5048028;28;20438;-74
2024/03/18 00:07:19;;;;;;;5.90;3.40;;;17.20;99.90;;;;;;5048997;28;20455;-72
2024/03/18 00:09:48;;;;;;;6.05;3.78;;;17.20;99.90;;;;;;5052886;28;20036;-73
2024/03/18 00:12:14;;;;;;;6.28;3.78;;;17.20;99.90;;;;;;5048361;28;20100;-73
2024/03/18 00:14:43;;;;;;;8.00;4.22;;;17.20;99.90;;;;;;5052943;28;20029;-74
2024/03/18 00:17:13;;;;;;;4.95;3.17;;;17.20;99.90;;;;;;5052598;28;20044;-72
2024/03/18 00:19:39;;;;;;;5.55;3.60;;;17.20;99.90;;;;;;5052956;28;20040;-74
2024/03/18 00:22:05;;;;;;;6.10;3.50;;;17.10;99.90;;;;;;5052594;28;20358;-73
2024/03/18 00:24:32;;;;;;;4.70;3.38;;;17.10;99.90;;;;;;5052132;28;20021;-72
2024/03/18 00:26:58;;;;;;;4.75;3.50;;;17.10;99.90;;;;;;5051817;28;20041;-74
2024/03/18 00:29:24;;;;;;;5.95;3.30;;;17.10;99.90;;;;;;5051881;28;20028;-74
2024/03/18 00:31:50;;;;;;;3.70;2.87;;;17.10;99.90;;;;;;5053435;28;20335;-74
2024/03/18 00:34:15;;;;;;;4.60;3.20;;;17.10;99.90;;;;;;5036436;28;20347;-74
2024/03/18 00:36:41;;;;;;;5.50;3.47;;;17.10;99.90;;;;;;5052616;28;20426;-74
2024/03/18 00:39:07;;;;;;;6.83;3.10;;;17.10;99.90;;;;;;5052470;28;20025;-73
2024/03/18 00:41:44;;;;;;;6.63;3.50;;;17.10;99.90;;;;;;5052474;28;20477;-75
2024/03/18 00:44:11;;;;;;;5.13;2.95;;;17.10;99.90;;;;;;5051154;28;20025;-72
2024/03/18 00:46:37;;;;;;;4.45;3.10;;;17.10;99.90;;;;;;5051442;28;20036;-74
2024/03/18 00:49:04;;;;;;;4.17;3.10;;;17.10;99.90;;;;;;5051289;28;20466;-74
2024/03/18 00:51:31;;;;;;;5.47;3.60;;;17.10;99.90;;;;;;5052592;28;20021;-73
2024/03/18 00:53:57;;;;;;;3.85;2.97;;;17.10;99.90;;;;;;5053004;28;20036;-74
2024/03/18 00:56:22;;;;;;;5.77;3.33;;;17.10;99.90;;;;;;5047391;28;20033;-73
2024/03/18 00:58:48;;;;;;;5.60;3.20;;;17.10;99.90;;;;;;5042141;28;20445;-73
2024/03/18 01:01:14;;;;;;;5.00;2.90;;;17.10;99.90;;;;;;5043235;28;20021;-73
2024/03/18 01:03:40;;;;;;;5.00;3.20;;;17.10;99.90;;;;;;5043138;28;20059;-74
2024/03/18 01:06:05;;;;;;;4.10;3.30;;;17.10;99.90;;;;;;5044605;28;20030;-73
2024/03/18 01:08:31;;;;;;;4.47;3.37;;;17.00;99.90;;;;;;5040255;28;20707;-75
2024/03/18 01:10:57;;;;;;;4.03;2.80;;;17.00;99.90;;;;;;5041704;28;20040;-72
2024/03/18 01:13:31;;;;;;;5.23;3.17;;;17.00;99.90;;;;;;5042577;28;22214;-72
2024/03/18 01:15:59;;;;;;;5.00;2.88;;;17.00;99.90;;;;;;5040013;28;20139;-73
2024/03/18 01:18:27;;;;;;;4.65;3.33;;;17.00;99.90;;;;;;5039427;28;20033;-73
2024/03/18 01:20:53;;;;;;;4.35;2.80;;;17.00;99.90;;;;;;5041592;28;20021;-73
2024/03/18 01:23:19;;;;;;;4.43;3.03;;;17.00;99.90;;;;;;5040812;28;20041;-74
2024/03/18 01:25:45;;;;;;;4.50;3.27;;;17.00;99.90;;;;;;5041195;28;20028;-74
2024/03/18 01:28:10;;;;;;;5.87;3.20;;;17.00;99.90;;;;;;5048042;28;20075;-73
2024/03/18 01:30:36;;;;;;;5.60;3.10;;;17.00;99.90;;;;;;5051373;28;20470;-74
2024/03/18 01:33:02;;;;;;;3.77;2.90;;;17.00;99.90;;;;;;5050821;28;20729;-74
2024/03/18 01:35:33;;;;;;;4.30;3.30;;;17.00;99.90;;;;;;5050881;28;20724;-74
2024/03/18 01:37:59;;;;;;;3.75;2.55;;;17.00;99.90;;;;;;5065893;28;20028;-74
2024/03/18 01:40:25;;;;;;;4.40;2.97;;;17.00;99.90;;;;;;5050896;28;20036;-74
2024/03/18 01:42:50;;;;;;;3.73;2.83;;;17.00;99.90;;;;;;5050754;28;20025;-73
2024/03/18 01:45:24;;;;;;;5.30;3.60;;;17.00;99.90;;;;;;5051211;28;20035;-73
2024/03/18 01:47:54;;;;;;;7.63;2.97;;;17.00;99.90;;;;;;5051017;28;20036;-73
2024/03/18 01:50:21;;;;;;;4.28;2.80;;;17.00;99.90;;;;;;5049568;28;20482;-73
2024/03/18 01:52:47;;;;;;;4.07;2.95;;;17.00;99.90;;;;;;5049738;28;20029;-75
2024/03/18 01:55:13;;;;;;;3.95;2.85;;;17.00;99.90;;;;;;5050455;28;20470;-73
2024/03/18 01:57:39;;;;;;;3.65;2.67;;;17.00;99.90;;;;;;5051189;28;20339;-73
2024/03/18 02:02:53;;;;;;;4.15;3.20;;;17.00;99.90;;;;;;5050609;28;20703;-73
2024/03/18 02:05:19;;;;;;;6.87;2.90;;;16.90;99.90;;;;;;5050944;28;20029;-74
2024/03/18 02:07:45;;;;;;;4.65;3.05;;;16.90;99.90;;;;;;5050935;28;20040;-74
2024/03/18 02:10:11;;;;;;;3.47;3.00;;;16.90;99.90;;;;;;5050792;28;20041;-73
2024/03/18 02:12:37;;;;;;;5.00;3.50;;;16.90;99.90;;;;;;5049333;28;20025;-74
2024/03/18 02:15:03;;;;;;;3.88;3.20;;;16.90;99.90;;;;;;5049451;28;20374;-73
2024/03/18 02:17:29;;;;;;;7.10;3.05;;;16.90;99.90;;;;;;5049636;28;20037;-73
2024/03/18 02:19:55;;;;;;;5.25;3.33;;;16.90;99.90;;;;;;5050656;28;20446;-73
2024/03/18 02:22:21;;;;;;;4.32;3.13;;;16.90;99.90;;;;;;5049251;28;20070;-74
2024/03/18 02:24:47;;;;;;;4.67;2.90;;;16.90;99.90;;;;;;5049418;28;20359;-73
2024/03/18 02:27:13;;;;;;;3.70;2.77;;;16.90;99.90;;;;;;5050342;28;20043;-73
2024/03/18 02:29:40;;;;;;;3.80;2.95;;;16.90;99.90;;;;;;5049275;28;20032;-75
2024/03/18 02:32:06;;;;;;;4.43;3.35;;;16.90;99.90;;;;;;5049923;28;20143;-73
2024/03/18 02:34:33;;;;;;;4.80;3.10;;;16.90;99.90;;;;;;5049058;28;20374;-73
2024/03/18 02:36:59;;;;;;;4.32;3.00;;;16.90;99.90;;;;;;5050001;28;20033;-73
2024/03/18 02:39:26;;;;;;;3.78;3.05;;;16.90;99.90;;;;;;5050862;28;20429;-73
2024/03/18 02:41:52;;;;;;;3.75;2.85;;;16.90;99.90;;;;;;5049787;28;20020;-74
2024/03/18 02:44:18;;;;;;;3.15;2.58;;;16.90;99.90;;;;;;5050515;28;20078;-74
2024/03/18 02:46:44;;;;;;;3.63;3.10;;;16.80;99.90;;;;;;5049989;28;20457;-73
2024/03/18 02:49:11;;;;;;;5.23;2.90;;;16.90;99.90;;;;;;5050399;28;20028;-73
2024/03/18 02:51:37;;;;;;;3.88;3.00;;;16.80;99.90;;;;;;5049031;28;20048;-73
2024/03/18 02:54:03;;;;;;;3.92;2.90;;;16.80;99.90;;;;;;5050033;28;20040;-74
2024/03/18 02:56:29;;;;;;;4.38;2.75;;;16.80;99.90;;;;;;5050284;28;20409;-73
2024/03/18 02:58:55;;;;;;;4.97;3.53;;;16.90;99.90;;;;;;5048526;28;20036;-73
2024/03/18 03:01:24;;;;;;;3.55;2.90;;;16.80;99.90;;;;;;5048612;28;20488;-73
2024/03/18 03:03:54;;;;;;;4.20;3.17;;;16.80;99.90;;;;;;5050045;28;20029;-73
2024/03/18 03:06:20;;;;;;;4.15;3.28;;;16.80;99.90;;;;;;5050434;28;20025;-73
2024/03/18 03:08:47;;;;;;;4.88;3.20;;;16.80;99.90;;;;;;5048407;28;20582;-73
2024/03/18 03:11:13;;;;;;;4.50;3.50;;;16.80;99.90;;;;;;5050174;28;20024;-73
2024/03/18 03:13:40;;;;;;;4.03;2.90;;;16.80;99.90;;;;;;5049737;28;20502;-73
2024/03/18 03:16:12;;;;;;;3.72;2.85;;;16.80;99.90;;;;;;5050101;28;20043;-73
2024/03/18 03:18:39;;;;;;;5.43;3.50;;;16.80;99.90;;;;;;5050763;28;20017;-73
2024/03/18 03:21:05;;;;;;;5.63;2.95;;;16.80;99.90;;;;;;5050600;28;20413;-73
2024/03/18 03:23:36;;;;;;;4.00;3.40;;;16.80;99.90;;;;;;5049596;28;20041;-74
2024/03/18 03:26:02;;;;;;;4.60;3.55;;;16.80;99.90;;;;;;5048598;28;20037;-74
2024/03/18 03:28:28;;;;;;;4.18;3.30;;;16.80;99.90;;;;;;5049638;28;20037;-73
2024/03/18 03:31:13;;;;;;;3.47;3.13;;;16.80;99.90;;;;;;5050063;28;20029;-74
2024/03/18 03:33:39;;;;;;;3.60;3.08;;;16.80;99.90;;;;;;5050098;28;20028;-73
2024/03/18 03:36:05;;;;;;;5.53;3.50;;;16.80;99.90;;;;;;5049835;28;20021;-73
2024/03/18 03:38:30;;;;;;;4.43;3.33;;;16.70;99.90;;;;;;5048450;28;20036;-73
2024/03/18 03:40:56;;;;;;;5.63;3.47;;;16.80;99.90;;;;;;5050081;28;20040;-74
2024/03/18 03:43:23;;;;;;;4.77;3.60;;;16.70;99.90;;;;;;5051012;28;20452;-74
2024/03/18 03:45:55;;;;;;;4.22;3.33;;;16.70;99.90;;;;;;5052485;28;20091;-73
2024/03/18 03:48:25;;;;;;;4.65;3.03;;;16.70;99.90;;;;;;5053938;28;20033;-74
2024/03/18 03:50:53;;;;;;;4.70;3.63;;;16.70;99.90;;;;;;5053905;28;20027;-73
2024/03/18 03:53:19;;;;;;;5.45;3.85;;;16.70;99.90;;;;;;5052264;28;20032;-74
2024/03/18 03:55:46;;;;;;;4.63;3.30;;;16.70;99.90;;;;;;5053048;28;20033;-73
2024/03/18 03:58:12;;;;;;;4.60;3.45;;;16.70;99.90;;;;;;5053774;28;20060;-74
2024/03/18 04:00:47;;;;;;;4.90;3.42;;;16.70;99.90;;;;;;5053423;28;20066;-73
2024/03/18 04:03:17;;;;;;;3.95;3.17;;;16.70;99.90;;;;;;5052977;28;20454;-73
2024/03/18 04:05:43;;;;;;;4.20;3.17;;;16.70;99.90;;;;;;5053383;28;20092;-73
2024/03/18 04:08:09;;;;;;;5.20;3.25;;;16.70;99.90;;;;;;5053141;28;20424;-73
2024/03/18 04:10:35;;;;;;;4.67;3.70;;;16.70;99.90;;;;;;5064057;28;20025;-73
2024/03/18 04:13:01;;;;;;;4.30;3.20;;;16.70;99.90;;;;;;5053107;28;20454;-73
2024/03/18 04:15:27;;;;;;;5.22;3.75;;;16.70;99.90;;;;;;5052035;28;20078;-74
2024/03/18 04:17:54;;;;;;;4.65;3.55;;;16.70;99.90;;;;;;5053197;28;20032;-73
2024/03/18 04:20:21;;;;;;;5.72;3.88;;;16.70;99.90;;;;;;5053123;28;20016;-73
2024/03/18 04:22:51;;;;;;;4.82;3.80;;;16.70;99.90;;;;;;5052467;28;20037;-74
2024/03/18 04:25:18;;;;;;;4.47;3.55;;;16.70;99.90;;;;;;5052013;28;20078;-73
2024/03/18 04:27:45;;;;;;;5.30;3.58;;;16.60;99.90;;;;;;5053056;28;20043;-74
2024/03/18 04:30:16;;;;;;;;;;;16.60;99.90;;;;;;5053447;28;20021;-73
2024/03/18 04:32:43;;;;;;;4.72;3.45;;;16.60;99.90;;;;;;5052705;28;19913;-73
2024/03/18 04:35:09;;;;;;;4.65;3.40;;;16.60;99.90;;;;;;5052678;28;20048;-73
2024/03/18 04:37:35;;;;;;;4.70;3.53;;;16.60;99.90;;;;;;5051444;28;20061;-72
2024/03/18 04:40:06;;;;;;;4.57;3.87;;;16.60;99.90;;;;;;5052852;28;20250;-73
2024/03/18 04:42:34;;;;;;;7.82;3.92;;;16.60;99.90;;;;;;5051204;28;20393;-74
2024/03/18 04:45:00;;;;;;;7.03;3.75;;;16.60;99.90;;;;;;5052548;28;20017;-72
2024/03/18 04:47:26;;;;;;;8.13;3.50;;;16.60;99.90;;;;;;5052147;28;20048;-73
2024/03/18 04:49:52;;;;;;;6.47;3.70;;;16.60;99.90;;;;;;5052666;28;20021;-74
2024/03/18 04:52:19;;;;;;;6.10;3.50;;;16.60;99.90;;;;;;5050878;28;20025;-74
2024/03/18 04:54:45;;;;;;;6.20;3.47;;;16.60;99.90;;;;;;5050930;28;20311;-73
2024/03/18 04:57:11;;;;;;;4.95;4.22;;;16.60;99.90;;;;;;5050844;28;20502;-74
2024/03/18 04:59:37;;;;;;;8.50;3.60;;;16.60;99.90;;;;;;5050801;28;20044;-73
2024/03/18 05:02:05;;;;;;;4.05;3.58;;;16.60;99.90;;;;;;5050643;28;20810;-73
2024/03/18 05:04:31;;;;;;;5.88;3.88;;;16.60;99.90;;;;;;5050947;28;20028;-74
2024/03/18 05:06:57;;;;;;;7.57;3.95;;;16.60;99.90;;;;;;5051992;28;20492;-73
2024/03/18 05:09:23;;;;;;;6.17;3.80;;;16.60;99.90;;;;;;5051998;28;20029;-74
2024/03/18 05:11:49;;;;;;;7.18;4.45;;;16.50;99.90;;;;;;5050677;28;20043;-73
2024/03/18 05:14:15;;;;;;;5.97;4.50;;;16.50;99.90;;;;;;5036882;28;20366;-73
2024/03/18 05:16:40;;;;;;;5.13;4.00;;;16.60;99.90;;;;;;5052008;28;20021;-74
2024/03/18 05:19:06;;;;;;;8.60;4.37;;;16.50;99.90;;;;;;5051546;28;20082;-73
2024/03/18 05:21:32;;;;;;;5.93;4.17;;;16.50;99.90;;;;;;5051553;28;20029;-73
2024/03/18 05:23:58;;;;;;;6.75;4.63;;;16.60;99.90;;;;;;5050072;28;20052;-73
2024/03/18 05:26:24;;;;;;;5.23;3.90;;;16.50;99.90;;;;;;5051772;28;20033;-74
2024/03/18 05:28:50;;;;;;;4.97;4.10;;;16.50;99.90;;;;;;5050345;28;20049;-73
2024/03/18 05:31:16;;;;;;;8.10;3.70;;;16.50;99.90;;;;;;5051985;28;20025;-74
2024/03/18 05:33:41;;;;;;;5.97;4.33;;;16.50;99.90;;;;;;5050030;28;20024;-74
2024/03/18 05:36:07;;;;;;;6.33;3.93;;;16.50;99.90;;;;;;5051766;28;20036;-74
2024/03/18 05:38:33;;;;;;;6.67;4.23;;;16.50;99.90;;;;;;5050365;28;20112;-73
2024/03/18 05:40:59;;;;;;;5.40;4.05;;;16.50;99.90;;;;;;5051798;28;20033;-74
2024/03/18 05:43:25;;;;;;;6.75;4.25;;;16.50;99.90;;;;;;5051346;28;20033;-72
2024/03/18 05:45:51;;;;;;;6.00;4.30;;;16.50;99.90;;;;;;5051183;28;20027;-74
2024/03/18 05:48:17;;;;;;;4.73;4.13;;;16.50;99.90;;;;;;5049771;28;20037;-73
2024/03/18 05:50:43;;;;;;;6.83;4.87;;;16.50;99.90;;;;;;5051232;28;20020;-73
2024/03/18 05:53:08;;;;;;;6.95;4.65;;;16.50;99.90;;;;;;5049927;28;20021;-73
2024/03/18 05:55:34;;;;;;;6.13;4.60;;;16.40;99.90;;;;;;5051037;28;20032;-73
2024/03/18 05:58:03;;;;;;;7.27;4.93;;;16.50;99.90;;;;;;5051132;28;20446;-73
2024/03/18 06:00:32;;;;;;;7.90;3.88;;;16.50;99.90;;;;;;5049515;28;20763;-72
2024/03/18 06:02:58;;;;;;;5.22;4.20;;;16.40;99.90;;;;;;5049672;28;20083;-74
2024/03/18 06:05:25;;;;;;;;;;;16.40;99.90;;;;;;5049740;28;20413;-73
2024/03/18 06:07:51;;;;;;;5.72;4.22;;;16.40;99.90;;;;;;5050368;28;19970;-73
2024/03/18 06:10:17;;;;;;;6.20;4.60;;;16.40;99.90;;;;;;5049383;28;20041;-74
2024/03/18 06:12:42;;;;;;;7.43;4.97;;;16.40;99.90;;;;;;5049395;28;20074;-74
2024/03/18 06:15:08;;;;;;;5.97;4.40;;;16.40;99.90;;;;;;5051503;28;20021;-73
2024/03/18 06:17:34;;;;;;;4.88;3.70;;;16.40;99.90;;;;;;5050341;28;20425;-74
2024/03/18 06:20:03;;;;;;;6.90;4.50;;;16.40;99.90;;;;;;5050403;28;20033;-72
2024/03/18 06:22:37;;;;;;;7.13;4.80;;;16.40;99.90;;;;;;5049223;28;20048;-73
2024/03/18 06:27:52;;;;;;;6.95;4.80;;;16.40;99.90;;;;;;5050138;28;20074;-74
2024/03/18 06:30:18;;;;;;;8.63;4.95;;;16.40;99.90;;;;;;5050526;28;20113;-73
2024/03/18 06:32:44;;;;;;;6.83;4.53;;;16.40;99.90;;;;;;5050318;28;20025;-72
2024/03/18 06:35:10;;;;;;;6.80;4.87;;;16.40;99.90;;;;;;5050544;28;20476;-74
2024/03/18 06:37:36;;;;;;;7.07;4.63;;;16.40;99.90;;;;;;5050154;28;20041;-74
2024/03/18 06:40:06;;;;;;;6.60;4.50;;;16.40;99.90;;;;;;5050494;28;20103;-74
2024/03/18 06:42:32;;;;;;;7.25;4.65;;;16.40;99.90;;;;;;5048608;28;20033;-74
2024/03/18 06:44:58;;;;;;;7.90;4.93;;;16.40;99.90;;;;;;5050512;28;20039;-73
2024/03/18 06:47:25;;;;;;;6.13;4.63;;;16.40;99.90;;;;;;5050428;28;20039;-73
2024/03/18 06:49:52;;;;;;;6.63;4.78;;;16.40;99.90;;;;;;5050646;28;20699;-73
2024/03/18 06:52:17;;;;;;;6.68;5.07;;;16.40;99.90;;;;;;5048480;28;20108;-73
2024/03/18 06:54:44;;;;;;;7.97;4.87;;;16.50;99.90;;;;;;5048663;28;20128;-74
2024/03/18 06:57:10;;;;;;;6.38;4.72;;;16.40;99.90;;;;;;5049120;28;20381;-74
2024/03/18 06:59:37;;;;;;;7.15;4.90;;;16.40;99.90;;;;;;5050118;28;20029;-73
2024/03/18 07:02:03;;;;;;;7.18;4.80;;;16.40;99.90;;;;;;5050247;28;20446;-74
2024/03/18 07:04:28;;;;;;;6.97;4.60;;;16.40;99.90;;;;;;5048775;28;20048;-73
2024/03/18 07:06:55;;;;;;;6.27;4.50;;;16.40;99.90;;;;;;5048038;28;20467;-73
2024/03/18 07:09:21;;;;;;;7.45;4.57;;;16.40;99.90;;;;;;5049438;28;20023;-75
2024/03/18 07:11:46;;;;;;;5.85;4.35;;;16.50;99.90;;;;;;5044680;28;20536;-74
2024/03/18 07:14:14;;;;;;;5.80;4.40;;;16.50;99.90;;;;;;5049907;28;20016;-73
2024/03/18 07:16:40;;;;;;;6.47;4.63;;;16.40;99.90;;;;;;5050260;28;20021;-73
2024/03/18 07:19:06;;;;;;;6.97;4.55;;;16.40;99.90;;;;;;5052118;28;20028;-75
2024/03/18 07:21:32;;;;;;;7.75;5.10;;;16.40;99.90;;;;;;5042096;28;20033;-74
2024/03/18 07:24:00;;;;;;;6.80;4.47;;;16.40;99.90;;;;;;5051991;28;20390;-75
2024/03/18 07:26:26;;;;;;;6.85;4.00;;;16.40;99.90;;;;;;5050933;28;20029;-73
2024/03/18 07:28:52;;;;;;;11.90;4.90;;;16.40;99.90;;;;;;5053678;28;20382;-74
2024/03/18 07:31:18;;;;;;;7.43;4.63;;;16.40;99.90;;;;;;5052771;28;20028;-74
2024/03/18 07:33:45;;;;;;;7.77;4.67;;;16.40;99.90;;;;;;5051839;28;20083;-74
2024/03/18 07:36:11;;;;;;;8.55;4.68;;;16.40;99.90;;;;;;5052278;28;20028;-74
2024/03/18 07:38:37;;;;;;;7.27;4.80;;;16.40;99.90;;;;;;5053595;28;20025;-74
2024/03/18 07:41:03;;;;;;;23.33;5.57;;;16.40;99.90;;;;;;5053577;28;20099;-74
2024/03/18 07:43:28;;;;;;;33.77;6.30;;;16.40;99.90;;;;;;5052212;28;20032;-74
2024/03/18 07:45:54;;;;;;;53.57;7.53;;;16.40;99.90;;;;;;5053676;28;20092;-74
2024/03/18 07:48:20;;;;;;;32.17;6.00;;;16.50;99.90;;;;;;5053267;28;20033;-74
2024/03/18 07:50:45;;;;;;;47.73;7.33;;;16.40;99.90;;;;;;5053907;28;20095;-74
2024/03/18 07:53:11;;;;;;;34.90;6.27;;;16.50;99.90;;;;;;5051143;28;20030;-73
2024/03/18 07:55:37;;;;;;;28.37;6.40;;;16.50;99.90;;;;;;5053190;28;20460;-73
2024/03/18 07:58:02;;;;;;;15.23;5.63;;;16.50;99.90;;;;;;5053915;28;20078;-73
2024/03/18 08:00:28;;;;;;;18.10;5.00;;;16.50;99.90;;;;;;5037660;28;20367;-75
2024/03/18 08:02:54;;;;;;;18.73;6.73;;;16.50;99.90;;;;;;5052984;28;20021;-74
2024/03/18 08:05:20;;;;;;;23.42;7.05;;;16.50;99.90;;;;;;5052713;28;20025;-74
2024/03/18 08:07:46;;;;;;;17.93;5.87;;;16.50;99.90;;;;;;5053101;28;20040;-73
2024/03/18 08:10:12;;;;;;;9.33;6.10;;;16.50;99.90;;;;;;5053269;28;20024;-75
2024/03/18 08:12:37;;;;;;;18.87;6.40;;;16.60;99.90;;;;;;5053010;28;20446;-73
2024/03/18 08:15:03;;;;;;;20.50;5.10;;;16.60;99.90;;;;;;5052707;28;20029;-75
2024/03/18 08:17:29;;;;;;;16.70;6.22;;;16.60;99.90;;;;;;5050487;28;20029;-74
2024/03/18 08:19:55;;;;;;;258.73;150.47;;;16.60;99.90;;;;;;5051818;28;20482;-74
2024/03/18 08:22:20;;;;;;;96.70;61.73;;;16.60;99.90;;;;;;5053023;28;20442;-74
2024/03/18 08:24:46;;;;;;;72.13;38.77;;;16.60;99.90;;;;;;5052620;28;20105;-75
2024/03/18 08:27:13;;;;;;;79.53;43.23;;;16.60;99.90;;;;;;5051858;28;20119;-75
2024/03/18 08:29:39;;;;;;;71.00;43.15;;;16.60;99.90;;;;;;5051623;28;20096;-74
2024/03/18 08:32:05;;;;;;;63.10;36.67;;;16.60;99.90;;;;;;5051625;28;20025;-74
2024/03/18 08:34:30;;;;;;;63.03;35.13;;;16.60;99.90;;;;;;5050812;28;20029;-74
2024/03/18 08:36:56;;;;;;;57.00;31.57;;;16.60;99.90;;;;;;5067822;28;20043;-74
2024/03/18 08:39:22;;;;;;;56.90;30.83;;;16.60;99.90;;;;;;5052838;28;20366;-76
2024/03/18 08:41:48;;;;;;;55.40;31.20;;;16.60;99.90;;;;;;5052418;28;20521;-76
2024/03/18 08:44:13;;;;;;;51.07;27.90;;;16.60;99.90;;;;;;5052498;28;20024;-74
2024/03/18 08:46:40;;;;;;;63.50;29.50;;;16.70;99.90;;;;;;5050069;28;20028;-75
2024/03/18 08:49:08;;;;;;;48.85;28.00;;;16.70;99.90;;;;;;5052485;28;20517;-74
2024/03/18 08:51:34;;;;;;;71.88;40.22;;;16.70;99.90;;;;;;5052564;28;20044;-74
2024/03/18 08:53:59;;;;;;;51.33;29.02;;;16.80;99.90;;;;;;5051832;28;20064;-74
2024/03/18 08:56:26;;;;;;;53.90;28.17;;;17.00;99.90;;;;;;5050657;28;20052;-74
2024/03/18 08:58:52;;;;;;;52.95;28.02;;;17.30;99.90;;;;;;5050310;28;20124;-75
2024/03/18 09:01:17;;;;;;;46.50;26.13;;;17.40;99.90;;;;;;5051006;28;20518;-76
2024/03/18 09:03:43;;;;;;;47.60;22.63;;;17.40;99.90;;;;;;5050693;28;20099;-74
2024/03/18 09:06:09;;;;;;;43.90;23.27;;;17.40;99.90;;;;;;5050436;28;20463;-75
2024/03/18 09:08:37;;;;;;;46.10;22.93;;;17.50;99.90;;;;;;5050652;28;20471;-75
2024/03/18 09:11:03;;;;;;;43.38;21.65;;;17.50;99.90;;;;;;5050523;28;20362;-74
2024/03/18 09:13:29;;;;;;;44.73;21.77;;;17.40;99.90;;;;;;5051422;28;20021;-75
2024/03/18 09:15:54;;;;;;;39.20;19.83;;;17.30;99.90;;;;;;5051353;28;20025;-75
2024/03/18 09:18:21;;;;;;;37.77;20.27;;;17.50;99.90;;;;;;5050275;28;20476;-75
2024/03/18 09:20:52;;;;;;;40.78;19.95;;;18.40;99.90;;;;;;5049091;28;20466;-74
2024/03/18 09:23:17;;;;;;;38.28;17.52;;;19.20;99.90;;;;;;5046223;28;20486;-74
2024/03/18 09:25:43;;;;;;;33.63;18.63;;;19.70;99.90;;;;;;5048732;28;20033;-73
2024/03/18 09:28:09;;;;;;;33.70;16.83;;;19.80;99.90;;;;;;5050225;28;20025;-75
2024/03/18 09:30:35;;;;;;;36.13;17.65;;;19.50;99.90;;;;;;5048917;28;20025;-76
2024/03/18 09:33:01;;;;;;;28.70;17.17;;;19.20;99.90;;;;;;5049611;28;20029;-74
2024/03/18 09:35:27;;;;;;;29.73;17.13;;;18.90;99.90;;;;;;5051070;28;20049;-74
2024/03/18 09:37:52;;;;;;;30.80;17.87;;;19.10;99.90;;;;;;5050233;28;20076;-75
2024/03/18 09:40:18;;;;;;;34.03;17.70;;;19.20;99.90;;;;;;5049598;28;20013;-75
2024/03/18 09:42:44;;;;;;;29.53;15.70;;;19.20;99.90;;;;;;5051052;28;20021;-75
2024/03/18 09:45:16;;;;;;;34.13;16.95;;;19.50;99.90;;;;;;5050935;28;20045;-73
2024/03/18 09:47:43;;;;;;;33.03;16.60;;;19.60;99.90;;;;;;5051350;28;20033;-75
2024/03/18 09:50:12;;;;;;;30.10;16.27;;;19.60;99.90;;;;;;5049932;28;20047;-73
2024/03/18 09:52:41;;;;;;;31.67;17.40;;;19.60;99.90;;;;;;5049764;28;20159;-75
2024/03/18 09:55:21;;;;;;;34.28;16.35;;;19.60;99.90;;;;;;5050758;28;20123;-74
2024/03/18 09:57:48;;;;;;;28.70;15.23;;;19.70;99.90;;;;;;5050348;28;20036;-74
2024/03/18 10:00:15;;;;;;;32.03;16.15;;;19.60;99.90;;;;;;5051095;28;20029;-74
2024/03/18 10:02:41;;;;;;;29.25;15.20;;;19.70;99.90;;;;;;5051401;28;20028;-75
2024/03/18 10:05:09;;;;;;;30.42;15.45;;;19.70;99.90;;;;;;5044888;28;20036;-75
2024/03/18 10:07:36;;;;;;;27.58;15.20;;;19.90;99.90;;;;;;5047327;28;20056;-73
2024/03/18 10:10:06;;;;;;;32.58;15.35;;;20.00;99.90;;;;;;5046304;28;20087;-75
2024/03/18 10:12:32;;;;;;;30.60;15.07;;;20.50;99.90;;;;;;5047105;28;20080;-73
2024/03/18 10:14:57;;;;;;;29.20;14.70;;;20.40;99.90;;;;;;5045217;28;20474;-74
2024/03/18 10:17:25;;;;;;;33.97;14.67;;;20.30;99.90;;;;;;5045599;28;20036;-75
2024/03/18 10:19:51;;;;;;;30.35;14.20;;;20.50;99.90;;;;;;5046496;28;20071;-74
2024/03/18 10:22:16;;;;;;;26.23;14.97;;;20.40;99.90;;;;;;5046776;28;20037;-74
2024/03/18 10:24:43;;;;;;;24.97;14.50;;;20.30;99.90;;;;;;5047888;28;20025;-73
2024/03/18 10:27:12;;;;;;;32.17;13.63;;;20.40;99.90;;;;;;5048070;28;20140;-74
2024/03/18 10:29:38;;;;;;;26.75;12.07;;;20.60;99.90;;;;;;5050305;28;20110;-74
2024/03/18 10:32:27;;;;;;;23.67;11.75;;;20.90;99.90;;;;;;5050264;28;20094;-73
2024/03/18 10:35:00;;;;;;;26.27;12.45;;;21.00;99.90;;;;;;5048910;28;20351;-74
2024/03/18 10:37:27;;;;;;;24.00;10.80;;;20.90;99.90;;;;;;5050445;28;20025;-74
2024/03/18 10:40:06;;;;;;;20.90;11.68;;;21.10;99.90;;;;;;5050818;28;20039;-75
2024/03/18 10:42:33;;;;;;;20.38;11.73;;;21.10;99.90;;;;;;5049516;28;20467;-76
2024/03/18 10:45:34;;;;;;;;;;;21.30;99.90;;;;;;5049353;28;20347;-77
2024/03/18 10:48:07;;;;;;;23.42;10.57;;;21.40;99.90;;;;;;5008278;28;20378;-78
2024/03/18 10:50:34;;;;;;;21.33;11.15;;;21.00;99.90;;;;;;4991854;28;20025;-75
2024/03/18 10:53:01;;;;;;;22.20;10.85;;;20.90;99.90;;;;;;5008155;28;20485;-74
2024/03/18 10:55:30;;;;;;;19.40;10.68;;;20.80;99.90;;;;;;4990773;28;20223;-74
2024/03/18 10:57:59;;;;;;;20.88;10.25;;;21.00;99.90;;;;;;4991433;28;20038;-75
2024/03/18 11:00:25;;;;;;;23.80;10.32;;;21.30;99.90;;;;;;4991691;28;20475;-74
2024/03/18 11:02:58;;;;;;;;;;;21.60;99.90;;;;;;5008221;28;20068;-74
2024/03/18 11:05:26;;;;;;;17.15;9.05;;;22.80;99.90;;;;;;5007863;28;19905;-74
2024/03/18 11:07:58;;;;;;;16.08;8.77;;;23.60;99.90;;;;;;5007402;28;20113;-75
2024/03/18 11:10:30;;;;;;;14.23;8.57;;;23.80;99.90;;;;;;5007894;28;20404;-74
2024/03/18 11:13:10;;;;;;;19.15;9.00;;;23.40;99.90;;;;;;4978211;28;20044;-74
2024/03/18 11:15:56;;;;;;;18.15;9.05;;;22.40;99.90;;;;;;5007726;28;20388;-75
2024/03/18 11:18:26;;;;;;;13.45;8.10;;;21.60;99.90;;;;;;5004664;28;20403;-73
2024/03/18 11:21:02;;;;;;;15.18;8.40;;;21.20;99.90;;;;;;5006504;28;20025;-73
2024/03/18 11:23:32;;;;;;;20.25;8.75;;;21.10;99.90;;;;;;5015553;28;20041;-74
2024/03/18 11:26:07;;;;;;;19.40;8.45;;;21.10;99.90;;;;;;5050179;28;20083;-75
2024/03/18 11:28:43;;;;;;;15.93;8.10;;;21.10;99.90;;;;;;5047873;28;20036;-74
2024/03/18 11:31:11;;;;;;;17.90;8.38;;;21.20;99.90;;;;;;5049044;28;20025;-73
2024/03/18 11:33:39;;;;;;;23.08;10.82;;;21.30;99.90;;;;;;5049560;28;20108;-74
2024/03/18 11:36:09;;;;;;;23.48;9.73;;;21.30;99.90;;;;;;5039089;28;20067;-75
2024/03/18 11:38:36;;;;;;;15.75;8.70;;;21.30;99.90;;;;;;5062743;28;20036;-75
2024/03/18 11:41:05;;;;;;;18.60;9.65;;;21.40;99.90;;;;;;5038683;28;20061;-75
2024/03/18 11:43:32;;;;;;;21.00;9.35;;;21.20;99.90;;;;;;5061200;28;20032;-72
2024/03/18 11:46:00;;;;;;;21.60;9.35;;;21.30;99.90;;;;;;5048522;28;20021;-72
2024/03/18 11:48:29;;;;;;;22.90;10.40;;;21.20;99.90;;;;;;5048299;28;20792;-73
2024/03/18 11:50:55;;;;;;;19.25;10.93;;;21.20;99.90;;;;;;5037154;28;20021;-74
2024/03/18 11:53:21;;;;;;;24.77;11.55;;;21.20;99.90;;;;;;5047645;28;20312;-75
2024/03/18 11:55:55;;;;;;;27.60;12.00;;;21.20;99.90;;;;;;5048349;28;20471;-75
2024/03/18 11:58:21;;;;;;;33.30;13.27;;;21.30;99.90;;;;;;5047724;28;20017;-74
2024/03/18 12:00:48;;;;;;;;;;;21.50;99.90;;;;;;5049441;28;20021;-74
2024/03/18 12:03:14;;;;;;;29.67;13.52;;;21.50;99.90;;;;;;5049385;28;19905;-74
2024/03/18 12:05:42;;;;;;;29.15;14.32;;;21.30;99.90;;;;;;5051231;28;20116;-75
2024/03/18 12:08:20;;;;;;;35.70;13.98;;;21.30;99.90;;;;;;5051527;28;20037;-75
2024/03/18 12:10:53;;;;;;;39.28;15.55;;;21.30;99.90;;;;;;5048757;28;20471;-75
2024/03/18 12:13:24;;;;;;;28.08;14.90;;;21.30;99.90;;;;;;5053329;28;20035;-75
2024/03/18 12:15:50;;;;;;;31.67;16.13;;;21.40;99.90;;;;;;5052607;28;20112;-77
2024/03/18 12:18:16;;;;;;;34.67;15.60;;;21.40;99.90;;;;;;5053241;28;20421;-75
2024/03/18 12:20:42;;;;;;;33.60;16.10;;;21.40;99.90;;;;;;5052366;28;20029;-76
2024/03/18 12:23:17;;;;;;;32.07;16.23;;;21.50;99.90;;;;;;5052125;28;20036;-74
2024/03/18 12:28:36;;;;;;;29.77;14.50;;;21.50;99.90;;;;;;5051269;28;20536;-74
2024/03/18 12:31:09;;;;;;;33.60;15.25;;;21.40;99.90;;;;;;5052801;28;20065;-74
2024/03/18 12:33:35;;;;;;;29.25;13.88;;;21.50;99.90;;;;;;5051242;28;20028;-76
2024/03/18 12:36:06;;;;;;;28.48;14.75;;;21.50;99.90;;;;;;5050725;28;20577;-75
2024/03/18 12:38:38;;;;;;;35.03;14.32;;;21.50;99.90;;;;;;5050505;28;20094;-76
2024/03/18 12:41:06;;;;;;;30.02;13.73;;;21.40;99.90;;;;;;5051514;28;20078;-75
2024/03/18 12:43:34;;;;;;;31.63;13.10;;;21.40;99.90;;;;;;5050812;28;20032;-74
2024/03/18 12:46:02;;;;;;;28.08;13.45;;;21.40;99.90;;;;;;5048662;28;20052;-74
2024/03/18 12:48:28;;;;;;;28.83;13.18;;;21.50;99.90;;;;;;5050964;28;20041;-75
2024/03/18 12:50:55;;;;;;;27.43;11.73;;;21.50;99.90;;;;;;5050859;28;20028;-76